| time (UTC) | temp F | wind direction | speed MPH | gust MPH | rain 1hr in | rain 24hr in | rain mn in | humidity % | barometer mb |
| 20260505140241 | 33 | 308 | 0.0 | 0.0 | 0.00 | 0.34 | 0.34 | 96 | 1024.5 |
| 20260505130204 | 32 | 315 | 0.0 | 0.0 | 0.00 | 0.34 | 0.34 | 95 | 1024.1 |
| 20260505124654 | 32 | 313 | 0.0 | 0.0 | 0.00 | 0.34 | 0.34 | 95 | 1024.0 |
| 20260505124151 | 32 | 313 | 0.0 | 0.0 | 0.00 | 0.34 | 0.34 | 95 | 1024.0 |
| 20260505123647 | 32 | 315 | 0.0 | 0.0 | 0.00 | 0.34 | 0.34 | 95 | 1023.9 |
| 20260505123144 | 32 | 311 | 1.0 | 1.0 | 0.00 | 0.34 | 0.34 | 95 | 1023.7 |
| 20260505122640 | 33 | 309 | 0.0 | 0.0 | 0.00 | 0.34 | 0.34 | 95 | 1023.7 |
| 20260505122138 | 33 | 306 | 1.0 | 1.0 | 0.00 | 0.34 | 0.34 | 95 | 1023.7 |
| 20260505121634 | 33 | 314 | 0.0 | 1.0 | 0.00 | 0.34 | 0.34 | 95 | 1023.7 |
| 20260505121131 | 33 | 312 | 1.0 | 1.0 | 0.07 | 0.34 | 0.34 | 95 | 1023.5 |
| 20260505120627 | 34 | 312 | 1.0 | 2.0 | 0.07 | 0.34 | 0.34 | 95 | 1023.8 |
| 20260505120123 | 34 | 296 | 1.0 | 1.0 | 0.00 | 0.33 | 0.33 | 95 | 1023.7 |
| 20260505115617 | 34 | 304 | 1.0 | 2.0 | 0.05 | 0.33 | 0.33 | 95 | 1023.5 |
| 20260505115115 | 34 | 327 | 0.0 | 3.0 | 0.05 | 0.33 | 0.33 | 95 | 1023.7 |
| 20260505114612 | 34 | 306 | 2.0 | 4.0 | 0.00 | 0.32 | 0.32 | 95 | 1023.3 |
| 20260505114108 | 34 | 310 | 1.0 | 3.0 | 0.00 | 0.32 | 0.32 | 95 | 1023.5 |
| 20260505113605 | 34 | 316 | 1.0 | 4.0 | 0.00 | 0.32 | 0.32 | 95 | 1023.3 |
| 20260505113102 | 34 | 316 | 2.0 | 4.0 | 0.00 | 0.32 | 0.32 | 95 | 1023.4 |
| 20260505112558 | 34 | 323 | 2.0 | 7.0 | 0.07 | 0.32 | 0.32 | 95 | 1023.3 |
| 20260505112056 | 34 | 323 | 2.0 | 7.0 | 0.07 | 0.32 | 0.32 | 95 | 1023.3 |
| 20260505111555 | 34 | 305 | 4.0 | 4.0 | 0.00 | 0.31 | 0.31 | 95 | 1023.2 |
| 20260505111052 | 33 | 346 | 2.0 | 4.0 | 0.00 | 0.31 | 0.31 | 95 | 1023.2 |
| 20260505110548 | 33 | 321 | 2.0 | 3.0 | 0.05 | 0.31 | 0.31 | 95 | 1023.3 |
| 20260505102015 | 35 | 316 | 4.0 | 7.0 | 0.12 | 0.29 | 0.29 | 94 | 1022.8 |
| 20260505101514 | 35 | 311 | 2.0 | 7.0 | 0.12 | 0.28 | 0.28 | 94 | 1022.7 |
| 20260505101009 | 36 | 306 | 3.0 | 8.0 | 0.12 | 0.27 | 0.27 | 94 | 1022.7 |
| 20260505100507 | 36 | 310 | 3.0 | 6.0 | 0.12 | 0.26 | 0.26 | 94 | 1022.7 |
| 20260505100003 | 36 | 330 | 3.0 | 10.0 | 0.12 | 0.25 | 0.25 | 94 | 1022.7 |
| 20260505095500 | 37 | 330 | 2.0 | 8.0 | 0.07 | 0.24 | 0.24 | 94 | 1022.5 |
| 20260505094955 | 37 | 2 | 3.0 | 10.0 | 0.00 | 0.23 | 0.23 | 94 | 1022.6 |
| 20260505094453 | 37 | 306 | 7.0 | 13.0 | 0.00 | 0.23 | 0.23 | 94 | 1022.5 |
| 20260505093949 | 37 | 298 | 2.0 | 9.0 | 0.05 | 0.23 | 0.23 | 94 | 1022.6 |
| 20260505093445 | 37 | 310 | 3.0 | 9.0 | 0.00 | 0.22 | 0.22 | 94 | 1022.5 |
| 20260505092943 | 37 | 323 | 4.0 | 6.0 | 0.07 | 0.22 | 0.22 | 94 | 1022.4 |
| 20260505092440 | 38 | 271 | 3.0 | 8.0 | 0.07 | 0.22 | 0.22 | 94 | 1022.3 |
| 20260505091938 | 39 | 322 | 7.0 | 10.0 | 0.00 | 0.21 | 0.21 | 94 | 1022.5 |
| 20260505091435 | 39 | 341 | 2.0 | 9.0 | 0.07 | 0.21 | 0.21 | 94 | 1022.4 |
| 20260505090933 | 39 | 262 | 2.0 | 9.0 | 0.05 | 0.20 | 0.20 | 94 | 1022.1 |
| 20260505090431 | 40 | 328 | 3.0 | 4.0 | 0.05 | 0.20 | 0.20 | 94 | 1022.0 |
| 20260505085928 | 40 | 9 | 4.0 | 7.0 | 0.07 | 0.19 | 0.19 | 94 | 1022.1 |
| 20260505085426 | 40 | 329 | 4.0 | 6.0 | 0.07 | 0.19 | 0.19 | 93 | 1022.4 |
| 20260505084924 | 41 | 308 | 3.0 | 3.0 | 0.05 | 0.18 | 0.18 | 93 | 1022.1 |
| 20260505084422 | 41 | 310 | 6.0 | 8.0 | 0.05 | 0.18 | 0.18 | 93 | 1022.0 |
| 20260505083919 | 41 | 342 | 1.0 | 6.0 | 0.12 | 0.17 | 0.17 | 93 | 1021.9 |
| 20260505083417 | 41 | 318 | 3.0 | 4.0 | 0.19 | 0.17 | 0.17 | 93 | 1022.0 |
| 20260505082913 | 42 | 323 | 1.0 | 2.0 | 0.19 | 0.15 | 0.15 | 93 | 1021.9 |
| 20260505082409 | 42 | 323 | 2.0 | 3.0 | 0.17 | 0.14 | 0.14 | 93 | 1021.9 |
| 20260505081906 | 42 | 314 | 4.0 | 7.0 | 0.05 | 0.12 | 0.12 | 93 | 1021.9 |
| 20260505081402 | 42 | 332 | 3.0 | 4.0 | 0.07 | 0.11 | 0.11 | 93 | 1021.8 |
| 20260505080859 | 42 | 328 | 2.0 | 7.0 | 0.07 | 0.11 | 0.11 | 93 | 1021.8 |
| 20260505080355 | 42 | 310 | 2.0 | 3.0 | 0.00 | 0.10 | 0.10 | 93 | 1021.8 |
| 20260505075851 | 42 | 326 | 1.0 | 3.0 | 0.00 | 0.10 | 0.10 | 92 | 1021.8 |
| 20260505075348 | 42 | 291 | 1.0 | 3.0 | 0.00 | 0.10 | 0.10 | 92 | 1021.9 |
| 20260505074845 | 42 | 329 | 1.0 | 4.0 | 0.05 | 0.10 | 0.10 | 92 | 1021.8 |
| 20260505074342 | 42 | 303 | 4.0 | 6.0 | 0.05 | 0.10 | 0.10 | 92 | 1021.8 |
| 20260505073840 | 42 | 349 | 3.0 | 7.0 | 0.00 | 0.09 | 0.09 | 92 | 1021.6 |
| 20260505073337 | 43 | 345 | 5.0 | 7.0 | 0.00 | 0.09 | 0.09 | 92 | 1021.7 |
| 20260505072834 | 42 | 5 | 3.0 | 7.0 | 0.00 | 0.09 | 0.09 | 91 | 1021.6 |
| 20260505072330 | 43 | 300 | 3.0 | 4.0 | 0.07 | 0.09 | 0.09 | 91 | 1021.7 |
| 20260505071826 | 43 | 322 | 5.0 | 6.0 | 0.14 | 0.09 | 0.09 | 91 | 1021.4 |
| 20260505071323 | 43 | 358 | 3.0 | 4.0 | 0.12 | 0.08 | 0.08 | 91 | 1021.8 |
| 20260505070821 | 43 | 349 | 3.0 | 6.0 | 0.24 | 0.07 | 0.07 | 90 | 1021.8 |
| 20260505070318 | 43 | 326 | 4.0 | 9.0 | 0.17 | 0.05 | 0.05 | 89 | 1022.0 |
| 20260505065812 | 43 | 290 | 5.0 | 9.0 | 0.12 | 0.03 | 0.03 | 88 | 1021.9 |
| 20260505065309 | 44 | 289 | 2.0 | 4.0 | 0.12 | 0.02 | 0.02 | 87 | 1021.9 |
| 20260505064807 | 44 | 312 | 2.0 | 6.0 | 0.05 | 0.01 | 0.01 | 86 | 1021.8 |
| 20260505064303 | 44 | 1 | 2.0 | 7.0 | 0.00 | 0.00 | 0.00 | 84 | 1021.7 |
| 20260505063801 | 45 | 322 | 3.0 | 10.0 | 0.00 | 0.00 | 0.00 | 83 | 1021.3 |
| 20260505063258 | 45 | 350 | 1.0 | 8.0 | 0.00 | 0.00 | 0.00 | 82 | 1021.6 |
| 20260505062754 | 46 | 312 | 7.0 | 10.0 | 0.00 | 0.00 | 0.00 | 81 | 1021.6 |
| 20260505062252 | 46 | 330 | 3.0 | 8.0 | 0.00 | 0.00 | 0.00 | 81 | 1021.4 |
| 20260505061748 | 46 | 318 | 2.0 | 7.0 | 0.00 | 0.00 | 0.00 | 82 | 1021.3 |
| 20260505061246 | 47 | 267 | 2.0 | 10.0 | 0.00 | 0.00 | 0.00 | 81 | 1021.2 |
| 20260505060743 | 47 | 7 | 4.0 | 11.0 | 0.00 | 0.00 | 0.00 | 78 | 1021.0 |
| 20260505060236 | 48 | 333 | 3.0 | 9.0 | 0.00 | 0.00 | 0.00 | 76 | 1021.1 |
| 20260505055730 | 50 | 277 | 4.0 | 6.0 | 0.00 | 0.09 | 0.09 | 85 | 1021.1 |
| 20260505055227 | 50 | 294 | 4.0 | 6.0 | 0.00 | 0.09 | 0.09 | 84 | 1020.6 |
| 20260505054725 | 49 | 302 | 0.0 | 0.0 | 0.00 | 0.09 | 0.09 | 84 | 1020.7 |
| 20260505054222 | 49 | 298 | 0.0 | 0.0 | 0.00 | 0.09 | 0.09 | 85 | 1020.4 |
| 20260505053720 | 49 | 302 | 0.0 | 0.0 | 0.00 | 0.09 | 0.09 | 85 | 1020.4 |
| 20260505053216 | 49 | 302 | 0.0 | 0.0 | 0.00 | 0.09 | 0.09 | 85 | 1020.3 |
| 20260505052714 | 49 | 302 | 0.0 | 1.0 | 0.00 | 0.09 | 0.09 | 85 | 1020.3 |
| 20260505052211 | 50 | 311 | 0.0 | 0.0 | 0.00 | 0.09 | 0.09 | 85 | 1020.4 |
| 20260505051707 | 50 | 315 | 0.0 | 0.0 | 0.00 | 0.09 | 0.09 | 84 | 1019.9 |
| 20260505051205 | 50 | 305 | 0.0 | 0.0 | 0.00 | 0.09 | 0.09 | 84 | 1019.8 |
| 20260505050703 | 50 | 287 | 0.0 | 0.0 | 0.00 | 0.09 | 0.09 | 83 | 1020.2 |
| 20260505050202 | 50 | 298 | 0.0 | 1.0 | 0.00 | 0.09 | 0.09 | 83 | 1020.1 |
| 20260505041636 | 49 | 296 | 0.0 | 1.0 | 0.00 | 0.09 | 0.09 | 84 | 1019.9 |
| 20260505041134 | 50 | 314 | 0.0 | 0.0 | 0.00 | 0.09 | 0.09 | 85 | 1019.8 |
| 20260505040630 | 50 | 301 | 0.0 | 1.0 | 0.00 | 0.09 | 0.09 | 84 | 1019.9 |
| 20260505040128 | 50 | 286 | 1.0 | 3.0 | 0.00 | 0.09 | 0.09 | 85 | 1019.7 |
| 20260505035624 | 50 | 303 | 0.0 | 1.0 | 0.00 | 0.09 | 0.09 | 85 | 1019.6 |
| 20260505035120 | 50 | 284 | 0.0 | 2.0 | 0.00 | 0.09 | 0.09 | 84 | 1019.7 |
| 20260505034617 | 50 | 219 | 1.0 | 2.0 | 0.00 | 0.09 | 0.09 | 85 | 1019.7 |
| 20260505034114 | 50 | 185 | 2.0 | 4.0 | 0.00 | 0.09 | 0.09 | 85 | 1019.6 |
| 20260505033611 | 50 | 266 | 1.0 | 3.0 | 0.00 | 0.09 | 0.09 | 85 | 1019.7 |
| 20260505033109 | 50 | 191 | 3.0 | 4.0 | 0.00 | 0.09 | 0.09 | 85 | 1019.7 |
| 20260505032607 | 50 | 234 | 1.0 | 3.0 | 0.00 | 0.09 | 0.09 | 87 | 1019.8 |
| 20260505032103 | 50 | 204 | 2.0 | 2.0 | 0.00 | 0.09 | 0.09 | 88 | 1019.4 |
| 20260505031601 | 50 | 212 | 0.0 | 2.0 | 0.00 | 0.09 | 0.09 | 88 | 1019.4 |
| 20260505031056 | 50 | 246 | 1.0 | 1.0 | 0.00 | 0.09 | 0.09 | 88 | 1019.6 |
| 20260505030554 | 50 | 276 | 0.0 | 1.0 | 0.00 | 0.09 | 0.09 | 88 | 1019.5 |
| 20260505030049 | 50 | 281 | 0.0 | 2.0 | 0.00 | 0.09 | 0.09 | 87 | 1019.2 |
| 20260505025545 | 49 | 293 | 0.0 | 1.0 | 0.00 | 0.09 | 0.09 | 89 | 1019.4 |
| 20260505025045 | 50 | 294 | 0.0 | 0.0 | 0.00 | 0.09 | 0.09 | 89 | 1019.4 |
| 20260505024541 | 49 | 283 | 0.0 | 0.0 | 0.00 | 0.09 | 0.09 | 89 | 1018.9 |
| 20260505024038 | 49 | 279 | 0.0 | 0.0 | 0.00 | 0.09 | 0.09 | 90 | 1018.9 |
| 20260505023535 | 49 | 312 | 0.0 | 0.0 | 0.00 | 0.09 | 0.09 | 89 | 1018.9 |
| 20260505023033 | 49 | 268 | 0.0 | 0.0 | 0.00 | 0.09 | 0.09 | 89 | 1018.9 |
| 20260505022530 | 50 | 333 | 0.0 | 1.0 | 0.00 | 0.09 | 0.09 | 88 | 1018.7 |
| 20260505022027 | 50 | 304 | 0.0 | 0.0 | 0.00 | 0.09 | 0.09 | 86 | 1018.8 |
| 20260505021524 | 50 | 208 | 3.0 | 3.0 | 0.00 | 0.09 | 0.09 | 86 | 1018.7 |
| 20260505021020 | 50 | 226 | 2.0 | 3.0 | 0.00 | 0.09 | 0.09 | 87 | 1018.9 |
| 20260505020514 | 50 | 199 | 2.0 | 3.0 | 0.00 | 0.09 | 0.09 | 86 | 1018.8 |
| 20260505020012 | 50 | 212 | 1.0 | 3.0 | 0.00 | 0.09 | 0.09 | 87 | 1018.8 |
| 20260505015509 | 50 | 181 | 2.0 | 3.0 | 0.00 | 0.09 | 0.09 | 86 | 1019.0 |
| 20260505015006 | 50 | 304 | 0.0 | 0.0 | 0.00 | 0.09 | 0.09 | 86 | 1018.8 |
| 20260505014503 | 50 | 276 | 0.0 | 1.0 | 0.00 | 0.09 | 0.09 | 85 | 1018.8 |
| 20260505014000 | 50 | 297 | 0.0 | 1.0 | 0.00 | 0.09 | 0.09 | 86 | 1018.9 |
| 20260505013457 | 50 | 303 | 1.0 | 1.0 | 0.00 | 0.09 | 0.09 | 86 | 1019.0 |
| 20260505012954 | 50 | 329 | 1.0 | 1.0 | 0.00 | 0.09 | 0.09 | 85 | 1019.1 |
| 20260505012452 | 50 | 303 | 1.0 | 1.0 | 0.00 | 0.09 | 0.09 | 84 | 1018.8 |
| 20260505011949 | 50 | 181 | 1.0 | 2.0 | 0.00 | 0.09 | 0.09 | 84 | 1018.9 |
| 20260505011444 | 50 | 255 | 1.0 | 4.0 | 0.07 | 0.09 | 0.09 | 86 | 1018.9 |
| 20260505010942 | 50 | 264 | 2.0 | 3.0 | 0.00 | 0.08 | 0.08 | 87 | 1019.1 |
| 20260505010437 | 50 | 204 | 3.0 | 4.0 | 0.00 | 0.08 | 0.08 | 86 | 1018.9 |
| 20260505005934 | 50 | 273 | 2.0 | 3.0 | 0.05 | 0.08 | 0.08 | 86 | 1018.9 |
| 20260505005430 | 50 | 257 | 1.0 | 2.0 | 0.12 | 0.08 | 0.08 | 85 | 1018.9 |
| 20260505004928 | 51 | 289 | 3.0 | 4.0 | 0.12 | 0.07 | 0.07 | 84 | 1018.7 |
| 20260505004424 | 52 | 257 | 2.0 | 4.0 | 0.05 | 0.06 | 0.06 | 80 | 1018.8 |
| 20260505003922 | 52 | 283 | 3.0 | 6.0 | 0.07 | 0.05 | 0.05 | 78 | 1018.8 |
| 20260505003419 | 53 | 311 | 2.0 | 6.0 | 0.07 | 0.05 | 0.05 | 76 | 1018.9 |
| 20260505002915 | 54 | 316 | 4.0 | 8.0 | 0.00 | 0.04 | 0.04 | 70 | 1018.8 |
| 20260505002411 | 54 | 313 | 0.0 | 1.0 | 0.00 | 0.04 | 0.04 | 75 | 1018.8 |
| 20260505001910 | 54 | 301 | 0.0 | 1.0 | 0.00 | 0.04 | 0.04 | 76 | 1018.9 |
| 20260505001407 | 54 | 273 | 1.0 | 2.0 | 0.00 | 0.04 | 0.04 | 73 | 1018.5 |
| 20260505000904 | 53 | 304 | 1.0 | 2.0 | 0.00 | 0.04 | 0.04 | 80 | 1018.9 |
| 20260505000402 | 53 | 299 | 0.0 | 1.0 | 0.00 | 0.04 | 0.04 | 80 | 1018.7 |
| 20260504235858 | 53 | 283 | 1.0 | 1.0 | 0.00 | 0.04 | 0.04 | 76 | 1018.7 |
| 20260504235355 | 53 | 106 | 1.0 | 1.0 | 0.00 | 0.04 | 0.04 | 79 | 1018.4 |
| 20260504234851 | 53 | 239 | 1.0 | 1.0 | 0.07 | 0.04 | 0.04 | 76 | 1018.4 |
| 20260504234349 | 54 | 176 | 2.0 | 3.0 | 0.12 | 0.04 | 0.04 | 74 | 1018.3 |
| 20260504233846 | 53 | 54 | 2.0 | 3.0 | 0.05 | 0.03 | 0.03 | 67 | 1018.7 |
| 20260504233341 | 54 | 281 | 1.0 | 2.0 | 0.07 | 0.02 | 0.02 | 65 | 1018.4 |
| 20260504232838 | 56 | 195 | 3.0 | 7.0 | 0.05 | 0.01 | 0.01 | 60 | 1018.4 |
| 20260504232336 | 58 | 136 | 8.0 | 10.0 | 0.05 | 0.01 | 0.01 | 56 | 1018.8 |
| 20260504231832 | 61 | 286 | 2.0 | 6.0 | 0.00 | 0.00 | 0.00 | 46 | 1018.3 |
| 20260504231329 | 62 | 296 | 0.0 | 1.0 | 0.00 | 0.00 | 0.00 | 43 | 1018.1 |
| 20260504230825 | 62 | 290 | 2.0 | 7.0 | 0.00 | 0.00 | 0.00 | 40 | 1017.5 |
| 20260504230323 | 62 | 308 | 0.0 | 2.0 | 0.00 | 0.00 | 0.00 | 38 | 1017.6 |
| 20260504225822 | 63 | 262 | 2.0 | 6.0 | 0.00 | 0.00 | 0.00 | 37 | 1017.6 |
| 20260504225317 | 63 | 303 | 0.0 | 2.0 | 0.00 | 0.00 | 0.00 | 37 | 1017.1 |
| 20260504224815 | 63 | 306 | 1.0 | 6.0 | 0.00 | 0.00 | 0.00 | 36 | 1017.0 |
| 20260504224312 | 64 | 321 | 4.0 | 8.0 | 0.00 | 0.00 | 0.00 | 36 | 1016.8 |
| 20260504223808 | 64 | 288 | 4.0 | 10.0 | 0.00 | 0.00 | 0.00 | 36 | 1017.0 |
| 20260504223304 | 65 | 288 | 3.0 | 7.0 | 0.00 | 0.00 | 0.00 | 35 | 1016.9 |
| 20260504222801 | 66 | 346 | 5.0 | 9.0 | 0.00 | 0.00 | 0.00 | 33 | 1016.9 |
| 20260504222258 | 67 | 333 | 5.0 | 8.0 | 0.00 | 0.00 | 0.00 | 34 | 1016.9 |
| 20260504221755 | 67 | 264 | 2.0 | 10.0 | 0.00 | 0.00 | 0.00 | 35 | 1017.1 |
| 20260504221252 | 67 | 311 | 5.0 | 7.0 | 0.00 | 0.00 | 0.00 | 34 | 1016.8 |
| 20260504220749 | 66 | 318 | 6.0 | 7.0 | 0.00 | 0.00 | 0.00 | 35 | 1017.1 |
| 20260504220246 | 66 | 318 | 1.0 | 3.0 | 0.00 | 0.00 | 0.00 | 37 | 1017.0 |
| 20260504215743 | 64 | 12 | 3.0 | 3.0 | 0.00 | 0.00 | 0.00 | 38 | 1017.3 |
| 20260504215240 | 64 | 0 | 1.0 | 1.0 | 0.00 | 0.00 | 0.00 | 37 | 1017.6 |
| 20260504214736 | 63 | 296 | 3.0 | 4.0 | 0.00 | 0.00 | 0.00 | 38 | 1017.6 |
| 20260504214232 | 63 | 359 | 2.0 | 2.0 | 0.00 | 0.00 | 0.00 | 40 | 1017.6 |
| 20260504213729 | 62 | 294 | 2.0 | 3.0 | 0.00 | 0.00 | 0.00 | 40 | 1017.6 |
| 20260504213225 | 62 | 12 | 1.0 | 2.0 | 0.00 | 0.00 | 0.00 | 39 | 1017.5 |
| 20260504212723 | 62 | 352 | 0.0 | 3.0 | 0.00 | 0.00 | 0.00 | 39 | 1017.8 |
| 20260504212219 | 62 | 315 | 1.0 | 1.0 | 0.00 | 0.00 | 0.00 | 40 | 1017.7 |
| 20260504211717 | 62 | 273 | 2.0 | 4.0 | 0.00 | 0.00 | 0.00 | 40 | 1017.7 |
| 20260504211213 | 62 | 306 | 3.0 | 6.0 | 0.00 | 0.00 | 0.00 | 41 | 1017.7 |
| 20260504210710 | 62 | 285 | 4.0 | 10.0 | 0.00 | 0.00 | 0.00 | 41 | 1017.8 |
| 20260504210207 | 63 | 315 | 10.0 | 16.0 | 0.00 | 0.00 | 0.00 | 40 | 1017.6 |
| 20260504205704 | 64 | 278 | 9.0 | 13.0 | 0.00 | 0.00 | 0.00 | 37 | 1017.6 |
| 20260504205201 | 64 | 301 | 5.0 | 15.0 | 0.00 | 0.00 | 0.00 | 36 | 1017.5 |
| 20260504204700 | 64 | 325 | 6.0 | 8.0 | 0.00 | 0.00 | 0.00 | 35 | 1017.7 |
| 20260504204159 | 64 | 146 | 3.0 | 10.0 | 0.00 | 0.00 | 0.00 | 37 | 1017.6 |
| 20260504203657 | 64 | 356 | 4.0 | 8.0 | 0.00 | 0.00 | 0.00 | 35 | 1017.4 |
| 20260504203154 | 63 | 293 | 2.0 | 13.0 | 0.00 | 0.00 | 0.00 | 34 | 1017.1 |
| 20260504202649 | 63 | 287 | 5.0 | 6.0 | 0.00 | 0.00 | 0.00 | 36 | 1017.3 |
| 20260504202146 | 63 | 303 | 5.0 | 13.0 | 0.00 | 0.00 | 0.00 | 36 | 1017.4 |
| 20260504201643 | 63 | 291 | 6.0 | 10.0 | 0.00 | 0.00 | 0.00 | 37 | 1017.1 |
| 20260504201140 | 62 | 30 | 5.0 | 15.0 | 0.00 | 0.00 | 0.00 | 38 | 1017.7 |
| 20260504200637 | 62 | 302 | 4.0 | 11.0 | 0.00 | 0.00 | 0.00 | 37 | 1017.6 |
| 20260504200134 | 62 | 325 | 6.0 | 15.0 | 0.00 | 0.00 | 0.00 | 37 | 1017.7 |
| 20260504195630 | 63 | 312 | 9.0 | 24.0 | 0.00 | 0.00 | 0.00 | 38 | 1017.7 |
| 20260504195126 | 64 | 266 | 6.0 | 17.0 | 0.00 | 0.00 | 0.00 | 35 | 1017.4 |
| 20260504194623 | 65 | 306 | 5.0 | 15.0 | 0.00 | 0.00 | 0.00 | 32 | 1017.4 |
| 20260504194119 | 66 | 323 | 10.0 | 16.0 | 0.00 | 0.00 | 0.00 | 28 | 1017.3 |
| 20260504193615 | 67 | 314 | 5.0 | 11.0 | 0.00 | 0.00 | 0.00 | 27 | 1017.0 |
| 20260504193114 | 67 | 327 | 3.0 | 8.0 | 0.00 | 0.00 | 0.00 | 29 | 1017.0 |
| 20260504192612 | 67 | 281 | 3.0 | 11.0 | 0.00 | 0.00 | 0.00 | 29 | 1016.9 |
| 20260504192110 | 68 | 305 | 3.0 | 6.0 | 0.00 | 0.00 | 0.00 | 29 | 1016.9 |
| 20260504191608 | 68 | 301 | 1.0 | 8.0 | 0.00 | 0.00 | 0.00 | 28 | 1016.8 |
| 20260504191103 | 68 | 269 | 1.0 | 4.0 | 0.00 | 0.00 | 0.00 | 29 | 1016.7 |
| 20260504190600 | 68 | 222 | 3.0 | 9.0 | 0.00 | 0.00 | 0.00 | 27 | 1016.6 |
| 20260504190056 | 69 | 275 | 4.0 | 6.0 | 0.00 | 0.00 | 0.00 | 27 | 1016.7 |
| 20260504185553 | 69 | 234 | 4.0 | 7.0 | 0.00 | 0.00 | 0.00 | 27 | 1016.4 |
| 20260504185050 | 70 | 296 | 4.0 | 6.0 | 0.00 | 0.00 | 0.00 | 27 | 1016.4 |
| 20260504184545 | 70 | 247 | 3.0 | 7.0 | 0.00 | 0.00 | 0.00 | 27 | 1016.3 |
| 20260504184041 | 70 | 288 | 3.0 | 7.0 | 0.00 | 0.00 | 0.00 | 27 | 1016.7 |
| 20260504183538 | 71 | 239 | 7.0 | 9.0 | 0.00 | 0.00 | 0.00 | 26 | 1016.6 |
| 20260504183036 | 70 | 233 | 2.0 | 3.0 | 0.00 | 0.00 | 0.00 | 27 | 1016.7 |
| 20260504182532 | 70 | 289 | 2.0 | 4.0 | 0.00 | 0.00 | 0.00 | 26 | 1016.7 |
| 20260504182030 | 70 | 309 | 2.0 | 4.0 | 0.00 | 0.00 | 0.00 | 26 | 1016.7 |
| 20260504181527 | 71 | 251 | 5.0 | 8.0 | 0.00 | 0.00 | 0.00 | 25 | 1016.8 |
| 20260504181026 | 70 | 253 | 1.0 | 7.0 | 0.00 | 0.00 | 0.00 | 26 | 1016.6 |
| 20260504180524 | 70 | 261 | 2.0 | 3.0 | 0.00 | 0.00 | 0.00 | 25 | 1016.8 |
| 20260504180022 | 71 | 256 | 4.0 | 6.0 | 0.00 | 0.00 | 0.00 | 25 | 1016.7 |
| 20260504175519 | 70 | 266 | 2.0 | 4.0 | 0.00 | 0.00 | 0.00 | 26 | 1016.7 |
| 20260504175016 | 70 | 222 | 2.0 | 3.0 | 0.00 | 0.00 | 0.00 | 27 | 1016.8 |
| 20260504174514 | 70 | 220 | 1.0 | 6.0 | 0.00 | 0.00 | 0.00 | 27 | 1016.7 |
| 20260504174011 | 70 | 259 | 2.0 | 2.0 | 0.00 | 0.00 | 0.00 | 26 | 1016.8 |
| 20260504173507 | 70 | 229 | 4.0 | 6.0 | 0.00 | 0.00 | 0.00 | 26 | 1016.9 |
| 20260504173005 | 70 | 229 | 4.0 | 6.0 | 0.00 | 0.00 | 0.00 | 26 | 1017.1 |
| 20260504172501 | 70 | 190 | 2.0 | 4.0 | 0.00 | 0.00 | 0.00 | 27 | 1016.8 |
| 20260504171957 | 70 | 196 | 3.0 | 6.0 | 0.00 | 0.00 | 0.00 | 26 | 1017.1 |
| 20260504171454 | 71 | 242 | 2.0 | 3.0 | 0.00 | 0.00 | 0.00 | 26 | 1017.0 |
| 20260504170951 | 71 | 266 | 2.0 | 2.0 | 0.00 | 0.00 | 0.00 | 25 | 1017.0 |
| 20260504170447 | 71 | 198 | 2.0 | 3.0 | 0.00 | 0.00 | 0.00 | 25 | 1017.0 |
| 20260504160407 | 67 | 277 | 2.0 | 3.0 | 0.00 | 0.00 | 0.00 | 27 | 1017.1 |
| 20260504150831 | 61 | 208 | 1.0 | 3.0 | 0.00 | 0.00 | 0.00 | 36 | 1017.3 |
| 20260504150328 | 60 | 280 | 1.0 | 4.0 | 0.00 | 0.00 | 0.00 | 36 | 1017.6 |